Time;durP1;ratioP1;P1;durP2;ratioP2;P2;SDS_P1;SDS_P2;PMS_P1;PMS_P2;Temp;Humidity;BMP_temperature;BMP_pressure;BME280_temperature;BME280_humidity;BME280_pressure;Samples;Min_cycle;Max_cycle;Signal;HPM_P1;HPM_P2
2022/10/13 00:01:34;;;;;;;;;38.75;36.00;;;;;;;;5026761;27;11955;-77
2022/10/13 00:04:03;;;;;;;;;32.00;32.00;;;;;;;;5040994;27;11273;-76
2022/10/13 00:06:31;;;;;;;;;41.00;36.00;;;;;;;;5037984;27;11120;-76
2022/10/13 00:08:59;;;;;;;;;36.50;33.25;;;;;;;;5033025;27;11305;-77
2022/10/13 00:11:28;;;;;;;;;45.25;37.50;;;;;;;;5049303;27;11644;-77
2022/10/13 00:13:57;;;;;;;;;43.50;36.00;;;;;;;;5038566;27;11495;-76
2022/10/13 00:16:25;;;;;;;;;40.75;35.75;;;;;;;;5043982;27;11491;-76
2022/10/13 00:18:53;;;;;;;;;43.00;38.25;;;;;;;;5028089;27;11529;-76
2022/10/13 00:21:24;;;;;;;;;34.50;34.00;;;;;;;;5046906;27;11516;-76
2022/10/13 00:23:56;;;;;;;;;34.25;29.50;;;;;;;;5027753;27;11946;-75
2022/10/13 00:26:25;;;;;;;;;39.75;36.00;;;;;;;;5043924;27;11080;-76
2022/10/13 00:28:54;;;;;;;;;40.25;35.25;;;;;;;;5023337;28;11690;-76
2022/10/13 00:31:23;;;;;;;;;38.25;36.00;;;;;;;;5039392;27;11467;-76
2022/10/13 00:33:51;;;;;;;;;38.00;36.00;;;;;;;;5022130;27;11894;-76
2022/10/13 00:36:21;;;;;;;;;35.50;31.50;;;;;;;;5032292;27;11366;-77
2022/10/13 00:38:48;;;;;;;;;32.75;32.75;;;;;;;;5049356;27;11036;-76
2022/10/13 00:41:16;;;;;;;;;36.25;33.25;;;;;;;;5028234;27;11039;-75
2022/10/13 00:43:57;;;;;;;;;39.50;34.50;;;;;;;;5126738;27;11035;-76
2022/10/13 00:46:26;;;;;;;;;37.25;33.75;;;;;;;;5021985;27;11277;-77
2022/10/13 00:48:57;;;;;;;;;33.50;30.25;;;;;;;;5041348;27;11086;-76
2022/10/13 00:51:29;;;;;;;;;30.00;28.50;;;;;;;;5036630;27;10960;-77
2022/10/13 00:53:57;;;;;;;;;28.25;27.50;;;;;;;;5033976;27;11018;-76
2022/10/13 00:56:26;;;;;;;;;41.50;36.50;;;;;;;;5046926;27;10960;-77
2022/10/13 00:58:55;;;;;;;;;24.75;21.75;;;;;;;;5029890;27;11296;-76
2022/10/13 01:01:23;;;;;;;;;32.25;30.75;;;;;;;;5038606;27;11062;-76
2022/10/13 01:03:51;;;;;;;;;19.75;17.25;;;;;;;;5020038;27;11170;-76
2022/10/13 01:06:19;;;;;;;;;41.75;34.25;;;;;;;;5034428;27;10858;-74
2022/10/13 01:08:49;;;;;;;;;29.50;29.00;;;;;;;;5035044;27;11056;-75
2022/10/13 01:11:31;;;;;;;;;30.00;27.00;;;;;;;;5022131;27;11047;-76
2022/10/13 01:14:07;;;;;;;;;34.75;31.25;;;;;;;;5030504;27;10956;-76
2022/10/13 01:16:40;;;;;;;;;36.25;33.75;;;;;;;;5048106;27;11202;-75
2022/10/13 01:19:25;;;;;;;;;31.25;29.75;;;;;;;;5034548;27;11708;-76
2022/10/13 01:22:02;;;;;;;;;26.75;25.00;;;;;;;;5050968;27;11006;-76
2022/10/13 01:24:43;;;;;;;;;32.25;27.75;;;;;;;;5022025;27;10763;-76
2022/10/13 01:27:52;;;;;;;;;26.50;21.75;;;;;;;;5031017;27;11055;-76
2022/10/13 01:30:25;;;;;;;;;27.00;22.50;;;;;;;;5037839;27;10802;-75
2022/10/13 01:33:01;;;;;;;;;31.00;28.25;;;;;;;;5024953;27;10763;-76
2022/10/13 01:35:45;;;;;;;;;34.75;32.50;;;;;;;;5046314;27;10698;-76
2022/10/13 01:38:20;;;;;;;;;31.75;28.00;;;;;;;;5032867;27;10921;-76
2022/10/13 01:40:52;;;;;;;;;33.25;32.00;;;;;;;;5046042;27;11086;-77
2022/10/13 01:43:23;;;;;;;;;30.50;29.25;;;;;;;;5064761;27;11110;-76
2022/10/13 01:45:55;;;;;;;;;33.00;28.75;;;;;;;;5046231;27;10823;-77
2022/10/13 01:48:23;;;;;;;;;28.25;28.25;;;;;;;;5032485;27;10926;-77
2022/10/13 01:50:52;;;;;;;;;30.25;26.75;;;;;;;;5037211;27;10933;-77
2022/10/13 01:53:22;;;;;;;;;26.50;25.75;;;;;;;;5027469;27;10709;-77
2022/10/13 01:55:50;;;;;;;;;35.50;31.50;;;;;;;;5004385;27;10853;-75
2022/10/13 01:58:18;;;;;;;;;28.75;27.50;;;;;;;;5040819;27;11008;-75
2022/10/13 02:01:00;;;;;;;;;29.25;29.25;;;;;;;;5025780;27;10818;-76
2022/10/13 02:03:37;;;;;;;;;28.00;25.50;;;;;;;;5034704;27;10974;-76
2022/10/13 02:06:12;;;;;;;;;27.25;22.25;;;;;;;;5029295;27;11695;-76
2022/10/13 02:08:44;;;;;;;;;28.00;27.50;;;;;;;;5046836;27;10852;-75
2022/10/13 02:11:15;;;;;;;;;28.00;26.75;;;;;;;;5031238;27;10898;-76
2022/10/13 02:13:45;;;;;;;;;33.75;29.00;;;;;;;;5033369;27;10890;-75
2022/10/13 02:16:16;;;;;;;;;31.75;28.00;;;;;;;;5115824;27;10759;-76
2022/10/13 02:18:44;;;;;;;;;28.50;26.50;;;;;;;;5027104;27;10909;-75
2022/10/13 02:21:11;;;;;;;;;21.00;21.00;;;;;;;;5039909;27;10713;-76
2022/10/13 02:23:40;;;;;;;;;29.00;27.25;;;;;;;;5028591;27;10745;-76
2022/10/13 02:26:07;;;;;;;;;29.50;27.50;;;;;;;;5031755;27;10636;-76
2022/10/13 02:28:36;;;;;;;;;16.25;16.25;;;;;;;;5034981;27;10678;-76
2022/10/13 02:31:05;;;;;;;;;31.25;23.50;;;;;;;;5049165;27;10710;-76
2022/10/13 02:33:34;;;;;;;;;23.25;23.25;;;;;;;;5026104;27;10717;-76
2022/10/13 02:36:02;;;;;;;;;27.25;25.75;;;;;;;;5044316;27;10688;-76
2022/10/13 02:38:29;;;;;;;;;23.25;20.25;;;;;;;;5030248;27;10631;-76
2022/10/13 02:40:57;;;;;;;;;27.25;26.25;;;;;;;;5049730;27;10808;-75
2022/10/13 02:43:24;;;;;;;;;26.50;23.50;;;;;;;;5025713;27;10659;-75
2022/10/13 02:45:52;;;;;;;;;25.25;25.25;;;;;;;;5048736;27;10583;-75
2022/10/13 02:48:20;;;;;;;;;21.50;19.75;;;;;;;;5025597;27;10667;-76
2022/10/13 02:50:48;;;;;;;;;23.50;22.00;;;;;;;;5038337;27;10546;-75
2022/10/13 02:53:16;;;;;;;;;24.50;22.00;;;;;;;;5045252;27;10443;-75
2022/10/13 02:55:43;;;;;;;;;20.25;20.00;;;;;;;;5032618;27;10695;-75
2022/10/13 02:58:11;;;;;;;;;21.00;19.50;;;;;;;;5051828;27;10649;-76
2022/10/13 03:00:39;;;;;;;;;28.00;26.50;;;;;;;;5038083;27;10467;-76
2022/10/13 03:03:07;;;;;;;;;25.25;21.50;;;;;;;;5026228;27;10413;-76
2022/10/13 03:05:34;;;;;;;;;23.00;19.75;;;;;;;;5029689;27;11161;-77
2022/10/13 03:08:04;;;;;;;;;23.25;20.75;;;;;;;;5026244;27;10634;-76
2022/10/13 03:10:32;;;;;;;;;25.50;25.50;;;;;;;;5032414;27;10586;-77
2022/10/13 03:12:59;;;;;;;;;22.00;22.00;;;;;;;;5032690;27;10597;-77
2022/10/13 03:15:26;;;;;;;;;22.75;22.75;;;;;;;;5031409;27;10490;-76
2022/10/13 03:17:54;;;;;;;;;22.75;22.75;;;;;;;;5055190;27;11098;-77
2022/10/13 03:20:22;;;;;;;;;19.25;19.25;;;;;;;;5033711;27;10611;-76
2022/10/13 03:22:49;;;;;;;;;29.50;26.00;;;;;;;;5031389;27;10348;-76
2022/10/13 03:25:19;;;;;;;;;25.50;23.00;;;;;;;;5021582;27;10498;-75
2022/10/13 03:27:46;;;;;;;;;23.25;23.25;;;;;;;;5022159;27;10401;-75
2022/10/13 03:30:14;;;;;;;;;26.50;26.50;;;;;;;;5113013;27;10386;-75
2022/10/13 03:32:41;;;;;;;;;24.50;24.50;;;;;;;;5034412;28;10356;-75
2022/10/13 03:35:09;;;;;;;;;19.75;19.75;;;;;;;;5026449;28;10530;-75
2022/10/13 03:37:36;;;;;;;;;21.50;19.50;;;;;;;;5034410;28;10196;-75
2022/10/13 03:40:05;;;;;;;;;27.00;24.50;;;;;;;;5041170;27;10362;-76
2022/10/13 03:42:36;;;;;;;;;25.25;25.25;;;;;;;;5032394;28;10241;-76
2022/10/13 03:45:04;;;;;;;;;26.50;26.50;;;;;;;;5024849;27;10700;-76
2022/10/13 03:47:35;;;;;;;;;27.25;25.25;;;;;;;;5044692;28;10516;-76
2022/10/13 03:50:05;;;;;;;;;27.75;25.75;;;;;;;;5021211;28;10291;-76
2022/10/13 03:52:33;;;;;;;;;28.50;28.50;;;;;;;;5021770;28;10541;-76
2022/10/13 03:55:00;;;;;;;;;28.00;25.50;;;;;;;;5025442;27;10574;-75
2022/10/13 03:57:28;;;;;;;;;33.50;31.25;;;;;;;;5023614;28;10620;-76
2022/10/13 03:59:57;;;;;;;;;27.50;23.50;;;;;;;;5032016;27;10419;-75
2022/10/13 04:02:27;;;;;;;;;27.50;27.50;;;;;;;;5010488;27;10229;-76
2022/10/13 04:04:55;;;;;;;;;21.50;20.25;;;;;;;;5032404;28;10340;-77
2022/10/13 04:07:25;;;;;;;;;24.25;24.25;;;;;;;;5038353;27;10234;-76
2022/10/13 04:09:56;;;;;;;;;25.50;22.75;;;;;;;;5025286;28;10428;-76
2022/10/13 04:12:26;;;;;;;;;19.50;19.50;;;;;;;;5034562;27;10213;-76
2022/10/13 04:14:56;;;;;;;;;20.50;20.50;;;;;;;;5038398;28;10371;-77
2022/10/13 04:17:23;;;;;;;;;23.50;19.75;;;;;;;;5022062;27;10099;-76
2022/10/13 04:19:51;;;;;;;;;19.25;19.00;;;;;;;;5034485;27;10128;-76
2022/10/13 04:22:18;;;;;;;;;18.75;17.00;;;;;;;;5031319;27;10243;-76
2022/10/13 04:24:45;;;;;;;;;20.25;18.25;;;;;;;;5025883;27;10167;-76
2022/10/13 04:27:15;;;;;;;;;21.25;20.75;;;;;;;;5019111;28;10071;-77
2022/10/13 04:29:43;;;;;;;;;18.00;18.00;;;;;;;;5024128;27;10228;-77
2022/10/13 04:32:11;;;;;;;;;23.00;19.50;;;;;;;;5031523;27;10125;-78
2022/10/13 04:34:39;;;;;;;;;22.75;20.25;;;;;;;;5023062;27;10061;-77
2022/10/13 04:37:06;;;;;;;;;21.50;19.25;;;;;;;;5023821;28;10077;-75
2022/10/13 04:39:34;;;;;;;;;26.00;20.50;;;;;;;;5020827;27;10024;-75
2022/10/13 04:42:01;;;;;;;;;18.75;17.25;;;;;;;;5021135;27;10046;-76
2022/10/13 04:44:29;;;;;;;;;22.00;20.50;;;;;;;;5047510;27;9866;-77
2022/10/13 04:46:57;;;;;;;;;26.25;21.25;;;;;;;;5053187;27;9920;-75
2022/10/13 04:49:26;;;;;;;;;18.50;18.50;;;;;;;;5036218;27;10083;-77
2022/10/13 04:51:56;;;;;;;;;25.00;22.00;;;;;;;;5026676;27;9933;-76
2022/10/13 04:54:26;;;;;;;;;22.75;22.75;;;;;;;;5037545;27;10342;-75
2022/10/13 04:56:55;;;;;;;;;23.00;20.75;;;;;;;;5050094;27;10430;-75
2022/10/13 04:59:23;;;;;;;;;18.00;14.00;;;;;;;;5024349;27;9964;-74
2022/10/13 05:01:51;;;;;;;;;23.00;19.50;;;;;;;;5042305;27;9960;-75
2022/10/13 05:04:18;;;;;;;;;23.25;19.25;;;;;;;;5022299;27;10888;-75
2022/10/13 05:06:47;;;;;;;;;19.75;19.75;;;;;;;;5008769;28;9922;-76
2022/10/13 05:09:21;;;;;;;;;22.00;22.00;;;;;;;;5032330;27;10079;-76
2022/10/13 05:11:48;;;;;;;;;23.75;23.50;;;;;;;;5035548;27;10831;-76
2022/10/13 05:14:15;;;;;;;;;21.75;21.75;;;;;;;;5031439;27;10044;-76
2022/10/13 05:16:43;;;;;;;;;25.50;21.75;;;;;;;;5047480;27;10037;-76
2022/10/13 05:19:10;;;;;;;;;20.00;20.00;;;;;;;;5033361;27;9889;-77
2022/10/13 05:21:38;;;;;;;;;19.50;18.00;;;;;;;;5054145;27;10055;-77
2022/10/13 05:24:12;;;;;;;;;22.50;20.75;;;;;;;;5037344;27;9902;-75
2022/10/13 05:26:40;;;;;;;;;18.00;17.75;;;;;;;;5043612;27;9975;-75
2022/10/13 05:29:08;;;;;;;;;18.50;17.00;;;;;;;;5023626;27;9885;-75
2022/10/13 05:31:35;;;;;;;;;27.00;26.25;;;;;;;;4988667;27;10070;-75
2022/10/13 05:34:03;;;;;;;;;31.75;27.75;;;;;;;;5054262;27;10860;-76
2022/10/13 05:36:32;;;;;;;;;33.75;32.75;;;;;;;;5026410;27;10150;-75
2022/10/13 05:39:01;;;;;;;;;31.00;29.50;;;;;;;;5035710;27;10135;-77
2022/10/13 05:41:33;;;;;;;;;29.75;28.25;;;;;;;;5064858;27;10943;-79
2022/10/13 05:44:03;;;;;;;;;26.75;25.50;;;;;;;;5050859;27;10109;-79
2022/10/13 05:46:30;;;;;;;;;24.00;24.00;;;;;;;;5029306;27;9939;-79
2022/10/13 05:48:59;;;;;;;;;20.50;20.00;;;;;;;;5029498;27;9926;-85
2022/10/13 05:51:30;;;;;;;;;21.50;21.00;;;;;;;;5038737;27;10679;-79
2022/10/13 05:54:03;;;;;;;;;21.50;20.50;;;;;;;;5058785;27;9928;-76
2022/10/13 05:56:36;;;;;;;;;19.75;16.75;;;;;;;;5026814;27;9923;-75
2022/10/13 05:59:05;;;;;;;;;18.50;17.75;;;;;;;;5008155;27;9861;-74
2022/10/13 06:01:36;;;;;;;;;21.75;19.25;;;;;;;;5038321;27;9857;-72
2022/10/13 06:04:06;;;;;;;;;26.75;24.75;;;;;;;;5029264;27;9851;-76
2022/10/13 06:06:34;;;;;;;;;24.50;20.75;;;;;;;;5036231;27;10116;-74
2022/10/13 06:09:01;;;;;;;;;24.25;21.25;;;;;;;;5056775;27;9971;-74
2022/10/13 06:11:29;;;;;;;;;21.25;21.25;;;;;;;;5025777;27;9979;-76
2022/10/13 06:13:58;;;;;;;;;18.25;16.75;;;;;;;;5037058;27;9840;-73
2022/10/13 06:16:25;;;;;;;;;17.75;17.50;;;;;;;;5029154;27;9758;-73
2022/10/13 06:18:53;;;;;;;;;19.50;19.50;;;;;;;;5014284;27;9607;-73
2022/10/13 06:21:21;;;;;;;;;21.25;17.50;;;;;;;;5023259;27;9771;-75
2022/10/13 06:23:49;;;;;;;;;20.50;19.75;;;;;;;;5045212;27;9776;-73
2022/10/13 06:26:17;;;;;;;;;21.50;20.25;;;;;;;;5035968;27;9737;-74
2022/10/13 06:28:45;;;;;;;;;20.50;18.25;;;;;;;;4997484;27;9792;-74
2022/10/13 06:31:13;;;;;;;;;17.25;16.75;;;;;;;;5027368;27;9757;-75
2022/10/13 06:33:41;;;;;;;;;19.25;17.75;;;;;;;;5015243;27;9666;-73
2022/10/13 06:36:09;;;;;;;;;17.25;17.25;;;;;;;;5030802;27;9641;-74
2022/10/13 06:38:37;;;;;;;;;20.00;15.75;;;;;;;;5015942;28;9548;-71
2022/10/13 06:41:06;;;;;;;;;20.50;19.00;;;;;;;;5027852;27;9624;-71
2022/10/13 06:43:34;;;;;;;;;18.25;18.25;;;;;;;;5022827;27;9709;-74
2022/10/13 06:46:02;;;;;;;;;26.00;20.25;;;;;;;;5010198;28;9561;-75
2022/10/13 06:48:30;;;;;;;;;18.75;18.75;;;;;;;;5026095;27;9650;-74
2022/10/13 06:51:02;;;;;;;;;18.00;17.50;;;;;;;;5023538;27;9833;-73
2022/10/13 06:53:29;;;;;;;;;18.00;15.00;;;;;;;;4998105;27;9670;-74
2022/10/13 06:55:57;;;;;;;;;22.50;19.00;;;;;;;;5022234;27;9492;-74
2022/10/13 06:58:25;;;;;;;;;20.75;19.00;;;;;;;;5031513;27;9605;-74
2022/10/13 07:00:53;;;;;;;;;18.50;18.50;;;;;;;;5013437;27;9497;-74
2022/10/13 07:03:22;;;;;;;;;17.25;16.00;;;;;;;;5025719;27;9543;-73
2022/10/13 07:05:52;;;;;;;;;20.75;18.50;;;;;;;;5021190;27;9473;-73
2022/10/13 07:08:20;;;;;;;;;20.25;20.25;;;;;;;;5018023;27;9631;-73
2022/10/13 07:10:47;;;;;;;;;15.00;15.00;;;;;;;;5015127;28;9420;-75
2022/10/13 07:13:15;;;;;;;;;18.75;16.75;;;;;;;;5023224;27;10193;-78
2022/10/13 07:15:42;;;;;;;;;17.00;17.00;;;;;;;;5014829;28;9435;-74
2022/10/13 07:18:10;;;;;;;;;18.00;17.00;;;;;;;;5049130;27;9489;-74
2022/10/13 07:20:38;;;;;;;;;17.25;15.50;;;;;;;;5034674;27;9455;-74
2022/10/13 07:23:07;;;;;;;;;18.33;17.00;;;;;;;;5015223;27;9395;-74
2022/10/13 07:25:34;;;;;;;;;21.67;19.33;;;;;;;;5058885;27;9340;-75
2022/10/13 07:28:01;;;;;;;;;19.75;18.50;;;;;;;;5040452;27;10158;-74
2022/10/13 07:30:29;;;;;;;;;14.33;14.33;;;;;;;;5005824;27;9419;-74
2022/10/13 07:32:56;;;;;;;;;21.33;18.67;;;;;;;;5041981;27;10291;-71
2022/10/13 07:35:24;;;;;;;;;15.00;14.00;;;;;;;;5038240;27;9332;-72
2022/10/13 07:37:54;;;;;;;;;15.33;15.33;;;;;;;;5044667;27;9288;-78
2022/10/13 07:40:23;;;;;;;;;20.00;18.33;;;;;;;;5030042;28;9262;-74
2022/10/13 07:42:51;;;;;;;;;15.00;12.67;;;;;;;;5017943;27;9429;-73
2022/10/13 07:45:18;;;;;;;;;17.33;15.00;;;;;;;;5032263;27;9248;-75
2022/10/13 07:47:45;;;;;;;;;14.33;14.33;;;;;;;;5043475;27;9289;-73
2022/10/13 07:50:13;;;;;;;;;14.00;13.67;;;;;;;;5040275;28;9260;-71
2022/10/13 07:52:40;;;;;;;;;19.00;18.33;;;;;;;;5038269;27;9266;-71
2022/10/13 07:55:09;;;;;;;;;18.67;18.67;;;;;;;;5035090;27;9256;-74
2022/10/13 07:57:38;;;;;;;;;15.67;15.33;;;;;;;;5015206;27;9281;-73
2022/10/13 08:00:07;;;;;;;;;19.33;19.33;;;;;;;;5037126;27;10087;-77
2022/10/13 08:02:35;;;;;;;;;21.33;18.00;;;;;;;;5026184;27;9419;-74
2022/10/13 08:05:06;;;;;;;;;15.67;14.67;;;;;;;;5033050;27;9422;-74
2022/10/13 08:07:35;;;;;;;;;17.33;17.33;;;;;;;;5022744;27;9180;-71
2022/10/13 08:10:02;;;;;;;;;21.67;18.33;;;;;;;;5033022;27;9397;-74
2022/10/13 08:12:29;;;;;;;;;15.00;15.00;;;;;;;;5028405;27;9543;-76
2022/10/13 08:14:59;;;;;;;;;18.00;14.00;;;;;;;;5038042;28;9252;-73
2022/10/13 08:17:26;;;;;;;;;14.67;14.33;;;;;;;;5020197;28;9197;-75
2022/10/13 08:19:55;;;;;;;;;15.67;14.67;;;;;;;;5037885;27;9196;-73
2022/10/13 08:22:22;;;;;;;;;16.33;14.00;;;;;;;;5037706;27;9214;-75
2022/10/13 08:24:50;;;;;;;;;17.00;14.67;;;;;;;;5042840;27;9960;-74
2022/10/13 08:27:20;;;;;;;;;13.00;12.67;;;;;;;;5041482;27;9073;-75
2022/10/13 08:29:48;;;;;;;;;14.67;13.00;;;;;;;;5047433;27;9337;-81
2022/10/13 08:32:19;;;;;;;;;17.00;12.33;;;;;;;;5049036;27;9075;-76
2022/10/13 08:34:47;;;;;;;;;10.33;10.33;;;;;;;;5038782;27;9022;-75
2022/10/13 08:37:17;;;;;;;;;12.00;12.00;;;;;;;;5032062;27;9079;-76
2022/10/13 08:39:45;;;;;;;;;15.33;15.33;;;;;;;;5045749;27;9034;-77
2022/10/13 08:42:17;;;;;;;;;12.00;10.00;;;;;;;;5045010;27;8926;-79
2022/10/13 08:44:47;;;;;;;;;14.33;12.67;;;;;;;;5064518;27;8948;-77
2022/10/13 08:47:27;;;;;;;;;11.67;10.00;;;;;;;;5037071;27;9114;-78
2022/10/13 08:49:56;;;;;;;;;11.00;11.00;;;;;;;;5036620;27;9053;-77
2022/10/13 08:52:26;;;;;;;;;12.33;12.00;;;;;;;;5030832;27;8988;-76
2022/10/13 08:54:56;;;;;;;;;11.75;11.00;;;;;;;;5031924;27;9057;-77
2022/10/13 08:57:24;;;;;;;;;11.00;9.00;;;;;;;;5028818;27;9394;-76
2022/10/13 08:59:53;;;;;;;;;14.00;12.00;;;;;;;;5020304;27;8860;-77
2022/10/13 09:02:29;;;;;;;;;13.33;12.33;;;;;;;;5033197;27;8994;-77
2022/10/13 09:04:59;;;;;;;;;9.75;7.50;;;;;;;;5033554;27;8937;-78
2022/10/13 09:07:29;;;;;;;;;12.00;10.33;;;;;;;;5041332;27;8969;-77
2022/10/13 09:09:57;;;;;;;;;11.75;11.75;;;;;;;;5042564;27;9016;-79
2022/10/13 09:12:25;;;;;;;;;11.00;11.00;;;;;;;;5046579;27;8826;-78
2022/10/13 09:15:02;;;;;;;;;7.67;7.67;;;;;;;;5024806;27;10232;-76
2022/10/13 09:17:32;;;;;;;;;8.75;8.75;;;;;;;;5038489;27;9178;-77
2022/10/13 09:20:02;;;;;;;;;11.25;11.25;;;;;;;;5033442;27;8855;-77
2022/10/13 09:22:30;;;;;;;;;9.75;9.75;;;;;;;;5058455;27;8854;-78
2022/10/13 09:25:18;;;;;;;;;10.50;10.00;;;;;;;;5013378;27;8845;-78
2022/10/13 09:27:47;;;;;;;;;12.75;9.75;;;;;;;;5038860;27;8842;-79
2022/10/13 09:30:37;;;;;;;;;10.00;7.00;;;;;;;;5034170;27;8868;-79
2022/10/13 09:33:24;;;;;;;;;8.75;8.75;;;;;;;;5025500;27;8857;-82
2022/10/13 09:36:09;;;;;;;;;9.75;8.75;;;;;;;;5024705;27;8891;-81
2022/10/13 09:38:38;;;;;;;;;12.00;11.00;;;;;;;;5070745;27;8834;-82
2022/10/13 09:41:11;;;;;;;;;11.50;9.50;;;;;;;;5046007;27;8872;-78
2022/10/13 09:43:45;;;;;;;;;11.75;10.75;;;;;;;;5045923;27;8867;-78
2022/10/13 09:46:17;;;;;;;;;10.50;7.50;;;;;;;;5047073;27;8847;-79
2022/10/13 09:48:49;;;;;;;;;10.25;7.25;;;;;;;;5016470;27;8863;-79
2022/10/13 09:51:34;;;;;;;;;9.50;9.50;;;;;;;;5016842;27;8856;-81
2022/10/13 09:54:02;;;;;;;;;6.50;5.50;;;;;;;;5029268;27;8867;-78
2022/10/13 09:56:36;;;;;;;;;11.00;8.50;;;;;;;;5024227;27;8827;-79
2022/10/13 09:59:13;;;;;;;;;8.25;8.25;;;;;;;;5043014;27;9713;-79
2022/10/13 10:01:44;;;;;;;;;8.25;7.00;;;;;;;;5014210;27;8980;-76
2022/10/13 10:04:16;;;;;;;;;5.00;5.00;;;;;;;;5021306;27;8851;-76
2022/10/13 10:06:45;;;;;;;;;9.75;7.75;;;;;;;;5057415;27;8993;-75
2022/10/13 10:09:34;;;;;;;;;7.25;6.00;;;;;;;;5039948;27;8869;-76
2022/10/13 10:12:04;;;;;;;;;9.75;7.50;;;;;;;;5037448;27;8847;-76
2022/10/13 10:14:34;;;;;;;;;6.00;6.00;;;;;;;;5033481;27;8849;-77
2022/10/13 10:17:07;;;;;;;;;12.50;8.00;;;;;;;;5046409;27;8857;-75
2022/10/13 10:19:53;;;;;;;;;5.00;5.00;;;;;;;;5023161;27;8857;-76
2022/10/13 10:22:30;;;;;;;;;9.75;7.25;;;;;;;;5041830;27;9011;-76
2022/10/13 10:25:07;;;;;;;;;6.25;6.25;;;;;;;;5040421;27;8841;-76
2022/10/13 10:27:40;;;;;;;;;7.00;7.00;;;;;;;;5051614;27;8981;-76
2022/10/13 10:30:15;;;;;;;;;6.50;6.50;;;;;;;;5040793;27;8841;-75
2022/10/13 10:32:56;;;;;;;;;6.00;6.00;;;;;;;;5040008;27;9558;-78
2022/10/13 10:35:38;;;;;;;;;6.00;6.00;;;;;;;;5040426;27;8825;-76
2022/10/13 10:38:18;;;;;;;;;6.00;6.00;;;;;;;;5038836;27;8922;-74
2022/10/13 10:40:52;;;;;;;;;5.75;5.75;;;;;;;;5031231;27;8968;-76
2022/10/13 10:43:53;;;;;;;;;6.25;5.00;;;;;;;;5096518;27;8862;-75
2022/10/13 10:46:25;;;;;;;;;5.75;5.75;;;;;;;;5034788;27;8846;-76
2022/10/13 10:48:57;;;;;;;;;7.00;5.00;;;;;;;;5049937;27;8870;-77
2022/10/13 10:51:37;;;;;;;;;4.00;4.00;;;;;;;;5051527;27;8806;-77
2022/10/13 10:54:23;;;;;;;;;6.25;6.25;;;;;;;;5088077;27;8846;-77
2022/10/13 10:56:55;;;;;;;;;5.75;4.25;;;;;;;;5042824;27;8857;-77
2022/10/13 10:59:44;;;;;;;;;4.75;4.00;;;;;;;;5048838;27;8858;-77
2022/10/13 11:02:19;;;;;;;;;5.00;5.00;;;;;;;;5057261;27;8848;-77
2022/10/13 11:04:48;;;;;;;;;6.00;6.00;;;;;;;;5053735;27;8839;-77
2022/10/13 11:07:58;;;;;;;;;5.25;4.25;;;;;;;;5064406;27;8843;-75
2022/10/13 11:10:26;;;;;;;;;5.00;5.00;;;;;;;;5044719;27;8891;-76
2022/10/13 11:13:21;;;;;;;;;3.00;3.00;;;;;;;;5037630;27;8849;-77
2022/10/13 11:15:50;;;;;;;;;6.00;4.25;;;;;;;;5001686;27;8845;-77
2022/10/13 11:19:04;;;;;;;;;3.50;3.50;;;;;;;;5040229;27;8865;-77
2022/10/13 11:22:11;;;;;;;;;5.25;3.25;;;;;;;;5024233;27;9045;-76
2022/10/13 11:24:49;;;;;;;;;3.00;3.00;;;;;;;;5046543;27;8862;-77
2022/10/13 11:27:23;;;;;;;;;5.00;5.00;;;;;;;;5057363;27;8972;-77
2022/10/13 11:29:56;;;;;;;;;3.50;3.50;;;;;;;;5023459;28;8883;-76
2022/10/13 11:32:54;;;;;;;;;3.00;3.00;;;;;;;;5064198;27;8917;-76
2022/10/13 11:35:24;;;;;;;;;3.25;3.25;;;;;;;;5055265;27;8847;-77
2022/10/13 11:38:03;;;;;;;;;2.25;2.25;;;;;;;;5055619;27;9005;-77
2022/10/13 11:40:34;;;;;;;;;3.25;3.25;;;;;;;;5063768;27;8947;-85
2022/10/13 11:43:25;;;;;;;;;2.75;2.75;;;;;;;;5037194;28;8887;-77
2022/10/13 11:46:31;;;;;;;;;2.50;2.25;;;;;;;;5046964;28;8883;-78
2022/10/13 11:49:18;;;;;;;;;3.00;3.00;;;;;;;;5028296;28;8857;-78
2022/10/13 11:51:59;;;;;;;;;3.00;3.00;;;;;;;;5054694;27;8877;-79
2022/10/13 11:54:32;;;;;;;;;3.00;3.00;;;;;;;;5061828;27;8838;-78
2022/10/13 11:57:03;;;;;;;;;2.00;2.00;;;;;;;;5064444;27;8959;-78
2022/10/13 11:59:32;;;;;;;;;6.25;3.00;;;;;;;;5078192;27;8839;-78
2022/10/13 12:02:06;;;;;;;;;2.25;2.25;;;;;;;;5027549;27;8917;-78
2022/10/13 12:04:33;;;;;;;;;3.00;3.00;;;;;;;;5052998;27;8857;-78
2022/10/13 12:07:03;;;;;;;;;6.00;4.00;;;;;;;;5034935;27;8855;-78
2022/10/13 12:09:31;;;;;;;;;3.00;3.00;;;;;;;;5041951;27;8855;-78
2022/10/13 12:12:02;;;;;;;;;7.25;7.25;;;;;;;;5038272;27;8892;-78
2022/10/13 12:14:38;;;;;;;;;3.00;3.00;;;;;;;;5069020;27;8833;-78
2022/10/13 12:17:20;;;;;;;;;3.75;3.75;;;;;;;;5045833;27;8858;-77
2022/10/13 12:19:48;;;;;;;;;3.00;3.00;;;;;;;;5036121;27;8952;-78
2022/10/13 12:22:16;;;;;;;;;2.00;2.00;;;;;;;;5055089;27;8831;-78
2022/10/13 12:24:44;;;;;;;;;6.67;4.00;;;;;;;;5027810;27;8845;-77
2022/10/13 12:27:20;;;;;;;;;4.00;4.00;;;;;;;;5046814;27;8823;-77
2022/10/13 12:29:48;;;;;;;;;4.25;4.25;;;;;;;;5043054;27;8915;-77
2022/10/13 12:32:20;;;;;;;;;4.75;4.00;;;;;;;;5033273;27;8841;-78
2022/10/13 12:34:48;;;;;;;;;3.25;3.25;;;;;;;;5046947;27;8884;-77
2022/10/13 12:37:24;;;;;;;;;4.75;4.75;;;;;;;;5062134;27;8855;-77
2022/10/13 12:39:52;;;;;;;;;4.00;3.75;;;;;;;;5040786;27;9923;-77
2022/10/13 12:42:26;;;;;;;;;4.00;4.00;;;;;;;;5043728;27;8841;-77
2022/10/13 12:44:57;;;;;;;;;6.75;4.25;;;;;;;;5048032;27;8853;-78
2022/10/13 12:47:39;;;;;;;;;3.75;3.75;;;;;;;;5039508;27;9643;-77
2022/10/13 12:50:35;;;;;;;;;4.25;3.75;;;;;;;;5039227;27;8877;-77
2022/10/13 12:53:10;;;;;;;;;6.25;4.50;;;;;;;;5021509;27;8839;-77
2022/10/13 12:55:50;;;;;;;;;4.00;4.00;;;;;;;;5036462;27;8861;-77
2022/10/13 12:58:23;;;;;;;;;5.25;5.25;;;;;;;;5040538;27;8951;-78
2022/10/13 13:01:08;;;;;;;;;5.25;5.25;;;;;;;;5071166;27;8855;-77
2022/10/13 13:03:37;;;;;;;;;5.25;3.75;;;;;;;;5033857;27;9550;-77
2022/10/13 13:06:11;;;;;;;;;4.00;4.00;;;;;;;;5045811;27;8865;-77
2022/10/13 13:08:38;;;;;;;;;5.75;4.25;;;;;;;;5041158;27;8842;-77
2022/10/13 13:11:16;;;;;;;;;5.75;4.25;;;;;;;;5036873;27;8902;-77
2022/10/13 13:13:45;;;;;;;;;5.50;3.50;;;;;;;;5043293;27;8885;-77
2022/10/13 13:16:17;;;;;;;;;4.00;4.00;;;;;;;;5033914;27;8968;-77
2022/10/13 13:18:47;;;;;;;;;7.75;4.75;;;;;;;;5056425;27;8865;-77
2022/10/13 13:21:16;;;;;;;;;5.50;4.75;;;;;;;;5033479;27;9005;-76
2022/10/13 13:23:45;;;;;;;;;5.00;5.00;;;;;;;;5035201;27;8854;-77
2022/10/13 13:26:14;;;;;;;;;1.00;1.00;;;;;;;;5022987;28;8845;-76
2022/10/13 13:28:47;;;;;;;;;6.50;3.75;;;;;;;;5045522;27;8835;-77
2022/10/13 13:31:16;;;;;;;;;4.25;4.25;;;;;;;;5032871;27;8845;-76
2022/10/13 13:33:44;;;;;;;;;5.50;5.25;;;;;;;;5034257;27;8845;-75
2022/10/13 13:36:17;;;;;;;;;9.25;7.00;;;;;;;;5060260;27;8997;-76
2022/10/13 13:38:45;;;;;;;;;8.75;6.00;;;;;;;;5059194;27;8851;-77
2022/10/13 13:41:13;;;;;;;;;6.00;6.00;;;;;;;;5051186;27;8952;-77
2022/10/13 13:43:41;;;;;;;;;10.50;8.50;;;;;;;;5062537;27;8849;-77
2022/10/13 13:46:16;;;;;;;;;15.25;13.00;;;;;;;;5045295;27;8994;-77
2022/10/13 13:48:45;;;;;;;;;10.50;8.00;;;;;;;;5054459;27;8849;-78
2022/10/13 13:51:13;;;;;;;;;9.00;8.00;;;;;;;;5054901;27;8950;-77
2022/10/13 13:53:41;;;;;;;;;4.75;4.75;;;;;;;;5050088;27;8936;-77
2022/10/13 13:56:13;;;;;;;;;4.00;4.00;;;;;;;;5040692;27;8880;-77
2022/10/13 13:58:41;;;;;;;;;10.25;6.25;;;;;;;;5038046;27;8858;-76
2022/10/13 14:01:09;;;;;;;;;9.00;7.25;;;;;;;;5025795;27;8829;-76
2022/10/13 14:03:38;;;;;;;;;5.50;5.50;;;;;;;;5045200;27;9445;-77
2022/10/13 14:06:06;;;;;;;;;6.25;6.25;;;;;;;;5069464;27;8944;-77
2022/10/13 14:08:34;;;;;;;;;6.50;6.50;;;;;;;;5034253;27;8849;-78
2022/10/13 14:11:01;;;;;;;;;10.00;8.00;;;;;;;;5045086;27;8839;-78
2022/10/13 14:13:29;;;;;;;;;7.00;7.00;;;;;;;;5046211;27;8970;-77
2022/10/13 14:16:00;;;;;;;;;9.00;9.00;;;;;;;;5036115;27;8854;-78
2022/10/13 14:18:27;;;;;;;;;8.00;8.00;;;;;;;;5056956;27;8831;-77
2022/10/13 14:20:56;;;;;;;;;7.00;7.00;;;;;;;;5051258;27;8831;-79
2022/10/13 14:23:24;;;;;;;;;8.75;8.75;;;;;;;;5055395;27;8857;-80
2022/10/13 14:25:53;;;;;;;;;8.00;8.00;;;;;;;;5021599;27;9105;-78
2022/10/13 14:28:21;;;;;;;;;8.00;8.00;;;;;;;;5065517;27;8901;-79
2022/10/13 14:30:49;;;;;;;;;6.00;6.00;;;;;;;;5063826;27;8854;-79
2022/10/13 14:33:18;;;;;;;;;6.75;6.75;;;;;;;;5027964;27;8841;-79
2022/10/13 14:35:46;;;;;;;;;11.75;8.25;;;;;;;;5026425;27;8852;-78
2022/10/13 14:38:15;;;;;;;;;7.50;7.50;;;;;;;;5055222;27;8962;-77
2022/10/13 14:40:44;;;;;;;;;7.25;6.75;;;;;;;;5029969;27;8857;-78
2022/10/13 14:43:11;;;;;;;;;7.50;6.00;;;;;;;;5026367;27;8835;-77
2022/10/13 14:45:40;;;;;;;;;7.25;5.75;;;;;;;;5056420;27;8855;-78
2022/10/13 14:48:07;;;;;;;;;4.00;4.00;;;;;;;;5040521;27;8831;-80
2022/10/13 14:50:35;;;;;;;;;4.00;4.00;;;;;;;;5067903;27;9247;-77
2022/10/13 14:53:02;;;;;;;;;4.00;4.00;;;;;;;;5047070;27;8960;-76
2022/10/13 14:55:32;;;;;;;;;5.50;5.00;;;;;;;;5040946;27;8843;-77
2022/10/13 14:58:00;;;;;;;;;4.50;4.00;;;;;;;;5054246;27;8849;-75